Airfield :
LOGIN :

Register | Disclaimer

   EN    FR    IT 

 










Legend :    VFR   Marginal VFR   IFR   Intensive IFR   Very Intensive IFR
Visi :
Ceiling :
>= 8 km
>= 3000ft
5 to 8 km
1000 to 3000 ft
1500m to 5 km
500 to 1000 ft
800 to 1500m
200 to 500 ft
< 800m
< 200 ft
Symbols :   Thunderstorms  Fog  Heavy snow  Heavy precipitations  Wind > 20 kt
SIGMETs :     Misc.  Thunderstorms  Icing  Turbulence  Mountain Waves  Volcanic Ashes






- Airport Elevation : 239 ft
- IATA code : VRN


LIPX - Villafranca Int. Verona

CURRENT METAR :
  • 270550Z AUTO VRB01KT 9999 BKN060/// 16/10 Q1030

EXPIRED METARs :
  • 270520Z AUTO 35003KT 9999 NCD 15/10 Q1030
  • 270450Z AUTO 34004KT 9999 NCD 14/09 Q1030
  • 270420Z AUTO 34004KT 9999 FEW074/// 13/09 Q1030
  • 270350Z AUTO 34003KT 320V030 9999 FEW073/// 12/08 Q1029

TAF TAF LIPX
Valid from the 27 at 06:00 until the 27 at 15:00 UTC


270600Z 2706/2715 VRB05KT 9999 BKN050
BECMG 2708/2710 24010KT



MET'MAP, your aeronautical weather chart ! - Copyright ORBIFLY December 2007 - Disclaimer

ORBIFLY MET'MAP TEAM :

Programming & Development : Alexandra Zaïnal
Concept & original design : Baudouin d'Aumeries
Assistance for programming : Marc-Olivier Méhu
Technical & hardware support : Manuel Goepfert

Contact : metmap@orbifly.com




SOURCES & CREDITS :

   NOAA